Time;durP1;ratioP1;P1;durP2;ratioP2;P2;SDS_P1;SDS_P2;PMS_P1;PMS_P2;Temp;Humidity;BMP_temperature;BMP_pressure;BME280_temperature;BME280_humidity;BME280_pressure;Samples;Min_cycle;Max_cycle;Signal;HPM_P1;HPM_P2
2022/05/22 00:02:05;;;;;;;16.75;12.23;;;;;;;7.62;100.00;162557.19;5069874;28;20173;-60
2022/05/22 00:04:31;;;;;;;16.13;12.10;;;;;;;7.69;100.00;162574.72;5071964;28;20032;-60
2022/05/22 00:06:56;;;;;;;22.98;10.70;;;;;;;7.70;100.00;162577.44;5069690;28;20048;-60
2022/05/22 00:09:22;;;;;;;12.52;10.38;;;;;;;7.68;100.00;162572.03;5071284;28;20118;-60
2022/05/22 00:11:48;;;;;;;9.93;8.90;;;;;;;7.66;100.00;162566.63;5069324;28;20052;-60
2022/05/22 00:14:13;;;;;;;14.80;10.43;;;;;;;7.65;100.00;162565.31;5071083;28;20035;-60
2022/05/22 00:16:46;;;;;;;13.38;10.82;;;;;;;7.67;100.00;162569.31;5068860;28;20048;-60
2022/05/22 00:19:25;;;;;;;10.40;9.25;;;;;;;7.71;100.00;162580.09;5071660;28;20031;-60
2022/05/22 00:21:51;;;;;;;15.07;9.43;;;;;;;7.69;100.00;162574.72;5069378;28;20040;-60
2022/05/22 00:24:19;;;;;;;12.02;9.40;;;;;;;7.63;100.00;162561.22;5070155;28;20051;-60
2022/05/22 00:26:46;;;;;;;8.48;7.47;;;;;;;7.56;100.00;162542.38;5069610;28;20488;-60
2022/05/22 00:29:13;;;;;;;11.55;10.30;;;;;;;7.51;100.00;162528.91;5070961;28;20025;-60
2022/05/22 00:31:38;;;;;;;15.38;8.75;;;;;;;7.47;100.00;162519.47;5069235;28;20823;-60
2022/05/22 00:34:03;;;;;;;8.88;8.00;;;;;;;7.33;100.00;162481.75;5071246;28;20078;-60
2022/05/22 00:36:29;;;;;;;13.68;8.70;;;;;;;7.40;100.00;162499.28;5068690;28;20582;-61
2022/05/22 00:38:54;;;;;;;9.30;8.43;;;;;;;7.35;100.00;162485.78;5070788;28;20345;-60
2022/05/22 00:41:20;;;;;;;11.30;9.75;;;;;;;7.32;100.00;162479.06;5069586;28;20040;-60
2022/05/22 00:43:49;;;;;;;15.15;9.13;;;;;;;7.30;100.00;162475.03;5070495;28;20028;-60
2022/05/22 00:46:17;;;;;;;11.02;9.07;;;;;;;7.32;100.00;162477.75;5069404;28;20056;-61
2022/05/22 00:48:47;;;;;;;9.23;7.35;;;;;;;7.33;100.00;162480.44;5071222;28;20077;-60
2022/05/22 00:51:15;;;;;;;12.18;8.45;;;;;;;7.29;100.00;162472.34;5069282;28;20094;-61
2022/05/22 00:53:45;;;;;;;12.43;7.63;;;;;;;7.24;100.00;162457.50;5070603;28;20110;-61
2022/05/22 00:56:17;;;;;;;8.68;6.78;;;;;;;7.20;100.00;162448.06;5068821;28;20040;-61
2022/05/22 00:58:42;;;;;;;18.17;6.05;;;;;;;7.09;100.00;162419.81;5070240;28;20479;-60
2022/05/22 01:01:08;;;;;;;7.07;5.93;;;;;;;7.06;100.00;162410.38;5069707;28;20044;-60
2022/05/22 01:03:33;;;;;;;10.77;7.60;;;;;;;7.02;100.00;162399.63;5070888;28;20028;-60
2022/05/22 01:06:08;;;;;;;67.80;8.73;;;;;;;6.96;100.00;162386.13;5069124;28;20044;-61
2022/05/22 01:08:35;;;;;;;16.75;8.38;;;;;;;6.91;100.00;162372.66;5070868;28;20040;-61
2022/05/22 01:11:04;;;;;;;28.15;7.78;;;;;;;6.88;100.00;162364.63;5069147;28;20040;-61
2022/05/22 01:13:35;;;;;;;13.35;5.97;;;;;;;6.84;100.00;162353.81;5070303;28;20033;-61
2022/05/22 01:16:03;;;;;;;6.18;5.43;;;;;;;6.78;100.00;162337.66;5069371;28;20513;-58
2022/05/22 01:18:28;;;;;;;12.60;6.38;;;;;;;6.72;100.00;162322.84;5070780;28;20032;-58
2022/05/22 01:20:55;;;;;;;14.23;8.70;;;;;;;6.64;100.00;162301.31;5068483;28;20127;-58
2022/05/22 01:23:22;;;;;;;10.85;6.63;;;;;;;6.61;100.00;162294.56;5070469;28;20033;-58
2022/05/22 01:25:47;;;;;;;8.32;7.63;;;;;;;6.57;100.00;162283.81;5068740;28;20064;-58
2022/05/22 01:28:16;;;;;;;19.42;11.10;;;;;;;6.59;100.00;162289.19;5070360;28;20031;-58
2022/05/22 01:30:42;;;;;;;17.92;12.93;;;;;;;6.67;100.00;162310.72;5068836;28;20035;-58
2022/05/22 01:33:07;;;;;;;15.70;11.40;;;;;;;6.66;100.00;162308.03;5070444;28;20477;-58
2022/05/22 01:35:35;;;;;;;14.05;9.85;;;;;;;6.65;100.00;162305.38;5068633;28;20399;-58
2022/05/22 01:38:02;;;;;;;12.07;9.20;;;;;;;6.63;100.00;162298.59;5070483;28;20033;-58
2022/05/22 01:40:28;;;;;;;11.90;10.38;;;;;;;6.56;100.00;162281.13;5069038;28;20044;-58
2022/05/22 01:42:53;;;;;;;11.60;9.60;;;;;;;6.53;100.00;162273.03;5070037;28;20384;-58
2022/05/22 01:45:23;;;;;;;11.73;8.13;;;;;;;6.56;100.00;162279.75;5069287;28;20024;-58
2022/05/22 01:47:48;;;;;;;9.00;8.30;;;;;;;6.53;100.00;162273.03;5070358;28;20111;-58
2022/05/22 01:50:14;;;;;;;9.80;8.80;;;;;;;6.49;100.00;162262.28;5068359;28;20563;-59
2022/05/22 01:52:40;;;;;;;9.68;7.93;;;;;;;6.45;100.00;162252.84;5069866;28;20132;-59
2022/05/22 01:55:07;;;;;;;10.02;8.23;;;;;;;6.42;100.00;162244.75;5070123;28;20539;-59
2022/05/22 01:57:32;;;;;;;7.97;7.32;;;;;;;6.35;100.00;162225.91;5048502;28;20049;-59
2022/05/22 01:59:58;;;;;;;14.50;11.27;;;;;;;6.31;100.00;162215.16;5050369;28;20025;-59
2022/05/22 02:02:23;;;;;;;8.55;7.85;;;;;;;6.25;100.00;162200.34;5067129;28;20524;-58
2022/05/22 02:04:49;;;;;;;75.53;9.13;;;;;;;6.20;100.00;162186.91;5067757;28;20033;-58
2022/05/22 02:09:59;;;;;;;92.13;9.02;;;;;;;5.99;100.00;162133.09;5063099;28;20100;-58
2022/05/22 02:12:24;;;;;;;7.45;6.82;;;;;;;5.93;100.00;162115.53;5064008;28;20048;-59
2022/05/22 02:14:49;;;;;;;8.82;7.95;;;;;;;5.91;100.00;162111.50;5064200;28;20032;-59
2022/05/22 02:17:15;;;;;;;9.75;8.75;;;;;;;5.90;100.00;162108.81;5060698;28;20033;-59
2022/05/22 02:19:40;;;;;;;14.07;10.18;;;;;;;5.89;100.00;162106.09;5063302;28;20017;-59
2022/05/22 02:22:06;;;;;;;18.08;10.45;;;;;;;5.92;100.00;162112.81;5062381;28;20044;-59
2022/05/22 02:24:31;;;;;;;11.60;9.63;;;;;;;5.94;100.00;162119.53;5063745;28;20442;-59
2022/05/22 02:26:56;;;;;;;17.08;11.02;;;;;;;5.95;100.00;162122.25;5060313;28;20037;-60
2022/05/22 02:29:22;;;;;;;14.60;11.93;;;;;;;5.97;100.00;162127.63;5063614;28;20016;-60
2022/05/22 02:31:47;;;;;;;16.83;12.23;;;;;;;6.00;100.00;162135.72;5061926;28;20045;-60
2022/05/22 02:34:12;;;;;;;12.35;11.10;;;;;;;5.99;100.00;162133.09;5062933;28;20031;-60
2022/05/22 02:36:38;;;;;;;10.93;9.82;;;;;;;5.97;100.00;162127.63;5062137;28;20067;-59
2022/05/22 02:39:03;;;;;;;13.55;11.10;;;;;;;5.99;100.00;162133.09;5062952;28;20017;-59
2022/05/22 02:41:28;;;;;;;10.10;9.20;;;;;;;5.96;100.00;162124.94;5060841;28;20040;-60
2022/05/22 02:43:54;;;;;;;12.57;10.10;;;;;;;5.94;100.00;162119.53;5063636;28;20472;-61
2022/05/22 02:46:21;;;;;;;11.75;10.55;;;;;;;5.91;100.00;162111.50;5060597;28;20041;-58
2022/05/22 02:48:46;;;;;;;14.73;12.48;;;;;;;5.90;100.00;162108.81;5062970;28;20046;-59
2022/05/22 02:51:14;;;;;;;10.80;9.75;;;;;;;5.86;100.00;162098.00;5059737;28;20053;-61
2022/05/22 02:53:40;;;;;;;10.07;9.02;;;;;;;5.82;100.00;162088.59;5063165;28;20017;-58
2022/05/22 02:56:08;;;;;;;10.57;8.60;;;;;;;5.77;100.00;162073.81;5061079;28;20067;-58
2022/05/22 02:58:33;;;;;;;13.38;10.48;;;;;;;5.73;100.00;162064.41;5061751;28;20025;-61
2022/05/22 03:00:58;;;;;;;13.13;7.53;;;;;;;5.69;100.00;162055.00;5065299;28;20052;-60
2022/05/22 03:03:24;;;;;;;9.15;8.35;;;;;;;5.64;100.00;162041.50;5072534;28;20036;-61
2022/05/22 03:08:33;;;;;;;50.85;9.23;;;;;;;5.51;100.00;162006.53;5053531;28;20036;-61
2022/05/22 03:11:03;;;;;;;27.95;8.18;;;;;;;5.47;100.00;161997.13;5059682;28;20040;-61
2022/05/22 03:13:28;;;;;;;10.80;9.73;;;;;;;5.45;100.00;161990.41;5072899;28;20028;-61
2022/05/22 03:15:54;;;;;;;10.57;7.93;;;;;;;5.44;100.00;161989.03;5071207;28;20059;-61
2022/05/22 03:18:19;;;;;;;11.80;10.57;;;;;;;5.44;100.00;161987.69;5072022;28;20021;-61
2022/05/22 03:20:46;;;;;;;9.57;8.65;;;;;;;5.44;100.00;161989.03;5071089;28;20032;-61
2022/05/22 03:23:12;;;;;;;10.02;9.05;;;;;;;5.40;100.00;161979.59;5072659;28;20052;-61
2022/05/22 03:25:38;;;;;;;10.93;9.93;;;;;;;5.35;100.00;161966.16;5070732;28;20075;-61
2022/05/22 03:28:03;;;;;;;16.83;8.02;;;;;;;5.40;100.00;161978.28;5072373;28;20436;-61
2022/05/22 03:30:29;;;;;;;238.18;12.35;;;;;;;5.39;100.00;161976.97;5071448;28;20047;-61
2022/05/22 03:32:54;;;;;;;14.82;7.32;;;;;;;5.31;100.00;161955.44;5072094;28;20024;-61
2022/05/22 03:35:20;;;;;;;10.50;6.68;;;;;;;5.26;100.00;161941.94;5070590;28;20024;-61
2022/05/22 03:37:45;;;;;;;11.77;10.57;;;;;;;5.25;100.00;161939.25;5072223;28;20021;-61
2022/05/22 03:40:13;;;;;;;15.13;11.13;;;;;;;5.28;100.00;161947.34;5071377;28;20024;-61
2022/05/22 03:42:38;;;;;;;10.45;9.13;;;;;;;5.29;100.00;161950.03;5071837;28;20051;-61
2022/05/22 03:45:04;;;;;;;10.32;9.27;;;;;;;5.35;100.00;161966.16;5072386;28;20044;-61
2022/05/22 03:47:29;;;;;;;18.02;10.20;;;;;;;5.40;100.00;161979.59;5070482;28;20041;-61
2022/05/22 03:49:54;;;;;;;9.68;8.77;;;;;;;5.44;100.00;161987.69;5071841;28;20028;-61
2022/05/22 03:52:20;;;;;;;8.68;7.78;;;;;;;5.40;100.00;161979.59;5070810;28;20490;-61
2022/05/22 03:54:45;;;;;;;9.13;6.75;;;;;;;5.42;100.00;161983.69;5071715;28;20336;-61
2022/05/22 03:57:11;;;;;;;9.52;8.65;;;;;;;5.46;100.00;161994.41;5069832;28;20052;-61
2022/05/22 03:59:42;;;;;;;13.98;10.23;;;;;;;5.50;100.00;162003.81;5072108;28;20055;-61
2022/05/22 04:02:07;;;;;;;12.95;11.40;;;;;;;5.54;100.00;162014.63;5070230;28;20388;-61
2022/05/22 04:04:33;;;;;;;12.23;10.10;;;;;;;5.59;100.00;162028.06;5071318;28;20028;-61
2022/05/22 04:06:59;;;;;;;10.90;9.80;;;;;;;5.64;100.00;162041.50;5070432;28;20052;-61
2022/05/22 04:09:27;;;;;;;14.80;11.07;;;;;;;5.66;100.00;162046.91;5071703;28;20027;-61
2022/05/22 04:11:52;;;;;;;9.07;8.10;;;;;;;5.67;100.00;162049.59;5069772;28;20052;-58
2022/05/22 04:14:18;;;;;;;9.27;7.75;;;;;;;5.66;100.00;162045.56;5071505;28;20021;-57
2022/05/22 04:16:43;;;;;;;12.65;11.35;;;;;;;5.66;100.00;162046.91;5069461;28;20051;-57
2022/05/22 04:19:09;;;;;;;11.88;10.48;;;;;;;5.69;100.00;162055.00;5070625;28;20021;-57
2022/05/22 04:21:35;;;;;;;14.45;11.25;;;;;;;5.75;100.00;162068.44;5068700;28;20040;-58
2022/05/22 04:26:44;;;;;;;10.18;9.18;;;;;;;5.83;100.00;162089.97;5061435;28;20412;-57
2022/05/22 04:29:10;;;;;;;11.65;10.43;;;;;;;5.86;100.00;162098.00;5062721;28;20029;-57
2022/05/22 04:31:35;;;;;;;13.65;12.27;;;;;;;5.91;100.00;162110.13;5059985;28;20508;-57
2022/05/22 04:34:00;;;;;;;13.30;11.80;;;;;;;5.96;100.00;162124.94;5061218;28;20384;-57
2022/05/22 04:36:26;;;;;;;15.88;12.80;;;;;;;6.05;100.00;162146.53;5060492;28;20048;-57
2022/05/22 04:38:51;;;;;;;16.05;14.23;;;;;;;6.12;100.00;162165.38;5059133;28;20031;-57
2022/05/22 04:41:17;;;;;;;17.50;13.65;;;;;;;6.18;100.00;162181.50;5059335;28;20523;-57
2022/05/22 04:43:42;;;;;;;17.52;10.95;;;;;;;6.24;100.00;162197.66;5054014;28;20358;-57
2022/05/22 04:46:08;;;;;;;17.95;13.68;;;;;;;6.31;100.00;162215.16;5052186;28;20057;-57
2022/05/22 04:48:34;;;;;;;16.55;14.63;;;;;;;6.45;100.00;162251.47;5070803;28;20059;-57
2022/05/22 04:50:59;;;;;;;16.85;14.07;;;;;;;6.51;100.00;162267.69;5069061;28;20060;-57
2022/05/22 04:53:26;;;;;;;17.77;13.70;;;;;;;6.57;100.00;162283.81;5069752;28;20063;-57
2022/05/22 04:55:52;;;;;;;17.77;15.98;;;;;;;6.65;100.00;162305.38;5067317;28;20041;-57
2022/05/22 04:58:17;;;;;;;20.58;15.35;;;;;;;6.73;100.00;162324.22;5071070;28;20031;-57
2022/05/22 05:00:43;;;;;;;15.57;13.93;;;;;;;6.77;100.00;162336.34;5068988;28;20044;-57
2022/05/22 05:03:08;;;;;;;20.17;15.85;;;;;;;6.91;100.00;162372.66;5069638;28;20024;-57
2022/05/22 05:05:34;;;;;;;21.23;17.13;;;;;;;7.02;100.00;162399.63;5069484;28;20040;-57
2022/05/22 05:08:00;;;;;;;20.50;17.40;;;;;;;7.13;100.00;162429.22;5070379;28;20051;-57
2022/05/22 05:10:25;;;;;;;26.45;18.95;;;;;;;7.23;100.00;162454.81;5067826;28;20476;-57
2022/05/22 05:12:51;;;;;;;19.95;17.80;;;;;;;7.39;100.00;162496.59;5070289;28;20035;-57
2022/05/22 05:15:19;;;;;;;22.60;20.17;;;;;;;7.52;100.00;162531.59;5068457;28;20066;-57
2022/05/22 05:17:45;;;;;;;28.47;18.90;;;;;;;7.67;100.00;162569.31;5067957;28;20055;-57
2022/05/22 05:20:13;;;;;;;35.42;22.13;;;;;;;7.80;100.00;162604.34;5067580;28;21009;-57
2022/05/22 05:22:39;;;;;;;18.13;14.20;;;;;;;7.93;100.00;162639.38;5069253;28;20063;-57
2022/05/22 05:25:05;;;;;;;26.33;19.63;;;;;;;8.08;100.00;162677.09;5068568;28;20033;-57
2022/05/22 05:27:31;;;;;;;23.60;17.17;;;;;;;8.24;100.00;162718.91;5067843;28;20471;-57
2022/05/22 05:29:56;;;;;;;22.33;18.95;;;;;;;8.38;100.00;162755.25;5068954;28;20037;-57
2022/05/22 05:32:22;;;;;;;27.92;19.30;;;;;;;8.53;100.00;162794.44;5066311;28;20636;-57
2022/05/22 05:35:03;;;;;;;23.35;18.25;;;;;;;8.70;100.00;162838.91;5069306;28;20081;-57
2022/05/22 05:37:28;;;;;;;44.47;19.10;;;;;;;8.85;100.00;162879.38;5052854;28;20051;-57
2022/05/22 05:39:54;;;;;;;24.67;18.42;;;;;;;9.01;100.00;162919.81;5068285;28;20395;-57
2022/05/22 05:42:21;;;;;;;28.27;18.48;;;;;;;9.14;100.00;162954.88;5072099;28;20051;-57
2022/05/22 05:44:47;;;;;;;21.08;17.27;;;;;;;9.31;100.00;162999.38;5073359;28;20093;-57
2022/05/22 05:47:12;;;;;;;18.63;16.05;;;;;;;9.46;100.00;163038.50;5071028;28;20491;-57
2022/05/22 05:49:38;;;;;;;19.98;14.98;;;;;;;9.65;100.00;163088.41;5073840;28;20514;-57
2022/05/22 05:52:04;;;;;;;25.10;14.55;;;;;;;9.83;100.00;163135.63;5053967;28;20350;-57
2022/05/22 05:54:30;;;;;;;21.27;13.52;;;;;;;10.02;100.00;163184.19;5060500;28;20031;-57
2022/05/22 05:56:55;;;;;;;17.90;13.30;;;;;;;10.19;100.00;163228.75;5071908;28;20040;-57
2022/05/22 05:59:20;;;;;;;27.23;14.50;;;;;;;10.35;100.00;163270.56;5073570;28;20120;-57
2022/05/22 06:01:46;;;;;;;17.67;11.32;;;;;;;10.48;100.00;163305.69;5070182;28;20600;-57
2022/05/22 06:04:11;;;;;;;14.70;11.13;;;;;;;10.68;100.00;163357.03;5073304;28;20430;-57
2022/05/22 06:06:37;;;;;;;16.63;10.40;;;;;;;10.86;100.00;163402.88;5071472;28;20045;-57
2022/05/22 06:09:02;;;;;;;19.92;9.70;;;;;;;11.03;100.00;163448.81;5072117;28;20035;-57
2022/05/22 06:11:27;;;;;;;18.38;11.50;;;;;;;11.20;100.00;163492.03;5071538;28;20135;-57
2022/05/22 06:13:53;;;;;;;15.65;10.70;;;;;;;11.29;100.00;163516.28;5072791;28;20040;-57
2022/05/22 06:16:18;;;;;;;17.88;10.10;;;;;;;11.42;100.00;163551.44;5070259;28;20376;-57
2022/05/22 06:18:44;;;;;;;12.43;8.93;;;;;;;11.63;100.00;163604.06;5072872;28;20028;-57
2022/05/22 06:21:15;;;;;;;16.02;8.57;;;;;;;11.84;100.00;163659.47;5071723;28;20511;-57
2022/05/22 06:23:41;;;;;;;16.88;8.05;;;;;;;11.95;100.00;163689.16;5071763;28;20364;-57
2022/05/22 06:26:07;;;;;;;13.73;7.40;;;;;;;12.21;100.00;163756.78;5071810;28;20051;-57
2022/05/22 06:28:33;;;;;;;16.13;9.15;;;;;;;12.33;100.00;163789.22;5073042;28;20407;-57
2022/05/22 06:30:58;;;;;;;13.73;7.10;;;;;;;12.64;100.00;163870.28;5070269;28;20064;-57
2022/05/22 06:33:23;;;;;;;12.15;6.90;;;;;;;12.94;100.00;163948.69;5070712;28;20123;-57
2022/05/22 06:35:49;;;;;;;16.90;5.60;;;;;;;13.44;100.00;164079.91;5071537;28;20035;-57
2022/05/22 06:41:05;;;;;;;13.82;5.95;;;;;;;14.68;100.00;164404.56;5071274;28;20082;-57
2022/05/22 06:43:30;;;;;;;9.55;5.45;;;;;;;14.94;100.00;164470.88;5073046;28;20669;-57
2022/05/22 06:45:56;;;;;;;10.07;5.55;;;;;;;15.29;100.00;164564.28;5069085;28;20158;-57
2022/05/22 06:48:21;;;;;;;10.00;5.85;;;;;;;15.49;100.00;164617.06;5071390;28;20479;-57
2022/05/22 06:50:46;;;;;;;9.48;4.38;;;;;;;15.57;100.00;164636.03;5071687;28;20032;-57
2022/05/22 06:53:12;;;;;;;13.45;4.50;;;;;;;15.49;100.00;164615.69;5070159;28;20021;-57
2022/05/22 06:55:37;;;;;;;16.30;7.53;;;;;;;15.44;100.00;164603.56;5069207;28;20090;-57
2022/05/22 06:58:02;;;;;;;10.40;5.20;;;;;;;15.31;100.00;164568.31;5072822;28;20024;-57
2022/05/22 07:00:28;;;;;;;10.55;3.97;;;;;;;15.29;100.00;164562.94;5071167;28;20137;-57
2022/05/22 07:02:54;;;;;;;12.95;4.95;;;;;;;15.27;100.00;164557.50;5071848;28;20792;-57
2022/05/22 07:05:20;;;;;;;19.38;5.53;;;;;;;15.38;100.00;164587.25;5071031;28;20059;-57
2022/05/22 07:07:46;;;;;;;13.23;5.28;;;;;;;15.37;100.00;164585.94;5072203;28;20032;-57
2022/05/22 07:10:11;;;;;;;8.88;3.38;;;;;;;15.41;100.00;164595.41;5070313;28;20436;-57
2022/05/22 07:12:37;;;;;;;7.95;3.88;;;;;;;15.64;100.00;164654.97;5072543;28;20486;-57
2022/05/22 07:15:03;;;;;;;8.77;4.05;;;;;;;15.63;100.00;164652.25;5071417;28;20028;-57
2022/05/22 07:17:29;;;;;;;10.15;3.65;;;;;;;15.83;100.00;164705.13;5069570;28;20079;-57
2022/05/22 07:19:56;;;;;;;7.38;2.83;;;;;;;16.00;100.00;164749.81;5071742;28;20024;-57
2022/05/22 07:22:22;;;;;;;12.13;3.72;;;;;;;16.10;100.00;164776.91;5070796;28;20522;-58
2022/05/22 07:24:47;;;;;;;8.80;3.75;;;;;;;16.25;100.00;164814.81;5070460;28;20052;-57
2022/05/22 07:27:14;;;;;;;9.70;4.40;;;;;;;16.31;100.00;164832.41;5070009;28;20047;-57
2022/05/22 07:29:39;;;;;;;8.55;2.75;;;;;;;16.33;100.00;164836.50;5071483;28;20103;-57
2022/05/22 07:32:05;;;;;;;7.00;3.30;;;;;;;16.18;100.00;164798.56;5069400;28;20040;-57
2022/05/22 07:34:31;;;;;;;8.50;3.88;;;;;;;16.39;100.00;164851.38;5071914;28;20107;-57
2022/05/22 07:36:59;;;;;;;17.10;4.53;;;;;;;16.56;100.00;164897.44;5069622;28;20078;-57
2022/05/22 07:39:25;;;;;;;4.55;3.00;;;;;;;16.66;100.00;164923.16;5070399;28;20032;-57
2022/05/22 07:41:51;;;;;;;14.65;4.78;;;;;;;16.68;100.00;164928.59;5069935;28;20435;-57
2022/05/22 07:44:17;;;;;;;11.60;4.03;;;;;;;16.77;100.00;164953.00;5071745;28;20082;-57
2022/05/22 07:46:42;;;;;;;12.27;3.42;;;;;;;16.91;100.00;164988.22;5068926;28;20040;-57
2022/05/22 07:49:07;;;;;;;10.77;3.88;;;;;;;17.00;100.00;165012.66;5072316;28;20372;-57
2022/05/22 07:51:33;;;;;;;10.40;2.72;;;;;;;17.20;100.00;165064.13;5070056;28;20044;-57
2022/05/22 07:53:58;;;;;;;19.08;2.88;;;;;;;17.42;100.00;165123.75;5069369;28;20047;-57
2022/05/22 07:56:23;;;;;;;8.88;2.92;;;;;;;17.65;100.00;165182.06;5065229;28;20135;-58
2022/05/22 07:58:50;;;;;;;5.90;3.88;;;;;;;17.72;100.00;165201.03;5070585;28;20025;-58
2022/05/22 08:01:16;;;;;;;10.55;4.05;;;;;;;17.87;100.00;165240.31;5068012;28;20039;-57
2022/05/22 08:03:42;;;;;;;8.73;2.25;;;;;;;18.02;100.00;165281.06;5069731;28;20025;-58
2022/05/22 08:06:07;;;;;;;9.85;3.13;;;;;;;18.25;100.00;165340.72;5068935;28;20056;-58
2022/05/22 08:08:33;;;;;;;8.02;2.80;;;;;;;18.08;100.00;165297.31;5068286;28;20059;-57
2022/05/22 08:10:59;;;;;;;5.38;2.47;;;;;;;18.43;100.00;165386.81;5067548;28;20049;-57
2022/05/22 08:13:25;;;;;;;7.75;3.65;;;;;;;18.87;100.00;165504.78;5070425;28;20071;-57
2022/05/22 08:15:51;;;;;;;8.65;2.63;;;;;;;19.10;100.00;165563.19;5068719;28;20177;-57
2022/05/22 08:18:16;;;;;;;5.68;2.50;;;;;;;19.43;100.00;165649.97;5068327;28;20447;-57
2022/05/22 08:20:43;;;;;;;7.22;2.95;;;;;;;19.54;100.00;165679.84;5062577;28;20071;-57
2022/05/22 08:23:16;;;;;;;6.97;3.28;;;;;;;19.02;100.00;165544.16;5061586;28;20496;-57
2022/05/22 08:25:42;;;;;;;8.68;2.83;;;;;;;20.05;100.00;165814.22;5069097;28;20420;-57
2022/05/22 08:28:08;;;;;;;8.77;2.65;;;;;;;20.40;100.00;165906.50;5066145;28;20021;-57
2022/05/22 08:30:33;;;;;;;7.63;2.47;;;;;;;20.56;100.00;165948.63;5068636;28;20044;-57
2022/05/22 08:33:00;;;;;;;6.75;2.55;;;;;;;20.32;100.00;165884.84;5070553;28;20424;-56
2022/05/22 08:35:30;;;;;;;11.32;2.83;;;;;;;20.26;100.00;165869.88;5069561;28;20081;-57
2022/05/22 08:37:56;;;;;;;11.93;3.65;;;;;;;20.39;100.00;165902.44;5070072;28;20044;-57
2022/05/22 08:40:24;;;;;;;6.05;2.20;;;;;;;20.50;100.00;165932.34;5068745;28;20396;-58
2022/05/22 08:42:58;;;;;;;6.65;3.13;;;;;;;20.54;100.00;165943.19;5070680;28;20527;-59
2022/05/22 08:45:30;;;;;;;16.23;3.42;;;;;;;20.50;100.00;165932.34;5069222;28;20020;-57
2022/05/22 08:48:12;;;;;;;12.52;2.90;;;;;;;20.45;100.00;165920.13;5069848;28;20025;-57
2022/05/22 08:50:38;;;;;;;12.20;2.65;;;;;;;20.20;100.00;165852.22;5068226;28;20564;-57
2022/05/22 08:53:15;;;;;;;6.97;1.88;;;;;;;20.57;100.00;165951.34;5070261;28;20109;-57
2022/05/22 08:58:56;;;;;;;7.53;2.40;;;;;;;20.64;100.00;165967.63;5069782;28;20051;-57
2022/05/22 09:01:31;;;;;;;6.85;2.28;;;;;;;20.67;91.41;165975.75;5068741;28;20159;-57
2022/05/22 09:04:05;;;;;;;10.25;3.35;;;;;;;21.00;100.00;166062.72;5070140;28;20035;-57
2022/05/22 09:06:38;;;;;;;7.80;2.55;;;;;;;20.87;93.52;166030.13;5068420;28;20527;-57
2022/05/22 09:09:04;;;;;;;6.85;2.17;;;;;;;21.08;97.17;166085.78;5070783;28;20035;-58
2022/05/22 09:12:08;;;;;;;8.00;3.05;;;;;;;21.20;100.00;166117.00;5067860;28;20044;-57
2022/05/22 09:14:41;;;;;;;10.13;2.13;;;;;;;21.53;96.49;166202.56;5068575;28;20032;-58
2022/05/22 09:17:24;;;;;;;6.28;2.15;;;;;;;21.19;93.47;166114.28;5068386;28;20078;-58
2022/05/22 09:19:52;;;;;;;11.73;2.90;;;;;;;21.61;100.00;166223.00;5070476;28;20089;-57
2022/05/22 09:22:30;;;;;;;;;;;;;;;21.62;92.80;166225.75;5068377;28;20044;-57
2022/05/22 09:25:01;;;;;;;;;;;;;;;21.39;92.25;166165.94;5069679;28;20398;-57
2022/05/22 09:27:57;;;;;;;6.32;1.92;;;;;;;20.95;98.29;166049.16;5067709;28;19927;-57
2022/05/22 09:30:42;;;;;;;5.25;2.97;;;;;;;20.78;93.36;166005.69;5057547;28;20123;-57
2022/05/22 09:33:14;;;;;;;14.38;3.35;;;;;;;20.70;99.48;165983.91;5069630;28;20048;-58
2022/05/22 09:36:11;;;;;;;19.05;3.50;;;;;;;20.92;97.72;166042.38;5062383;28;20051;-58
2022/05/22 09:38:45;;;;;;;6.60;1.80;;;;;;;21.05;90.93;166076.28;5060276;28;20037;-57
2022/05/22 09:41:40;;;;;;;8.15;1.90;;;;;;;20.59;93.40;165956.72;5068587;28;20119;-57
2022/05/22 09:44:23;;;;;;;8.40;2.03;;;;;;;20.70;88.12;165983.91;5069704;28;20024;-57
2022/05/22 09:47:07;;;;;;;7.43;1.63;;;;;;;20.67;100.00;165975.75;5059034;28;20171;-57
2022/05/22 09:49:37;;;;;;;11.65;3.20;;;;;;;21.00;100.00;166062.72;5060740;28;20043;-57
2022/05/22 09:52:03;;;;;;;5.88;1.73;;;;;;;21.20;100.00;166117.00;5057808;28;20037;-57
2022/05/22 09:54:53;;;;;;;11.57;2.17;;;;;;;20.02;86.82;165804.72;5059912;28;20563;-57
2022/05/22 09:57:28;;;;;;;6.57;3.30;;;;;;;19.70;88.76;165720.53;5062896;28;20074;-57
2022/05/22 10:00:11;;;;;;;3.67;1.90;;;;;;;19.92;91.85;165780.28;5060098;28;20025;-57
2022/05/22 10:02:49;;;;;;;5.13;2.05;;;;;;;20.13;87.53;165834.59;5057173;28;20508;-57
2022/05/22 10:05:14;;;;;;;4.25;2.15;;;;;;;20.45;91.83;165918.72;5059261;28;20044;-58
2022/05/22 10:08:03;;;;;;;7.47;2.65;;;;;;;20.60;84.34;165959.47;5062554;28;20104;-57
2022/05/22 10:10:37;;;;;;;8.90;2.90;;;;;;;20.83;89.75;166019.25;5066896;28;20047;-57
2022/05/22 10:13:16;;;;;;;8.07;3.05;;;;;;;20.73;88.41;165992.13;5065868;28;20059;-58
2022/05/22 10:16:14;;;;;;;15.73;3.67;;;;;;;20.13;84.27;165834.59;5056664;28;20037;-57
2022/05/22 10:19:17;;;;;;;5.78;2.38;;;;;;;20.11;87.53;165829.16;5060592;28;20399;-57
2022/05/22 10:21:58;;;;;;;15.15;3.53;;;;;;;20.49;87.58;165929.63;5058744;28;20140;-57
2022/05/22 10:24:40;;;;;;;3.80;1.83;;;;;;;20.68;85.93;165978.47;5057924;28;20379;-57
2022/05/22 10:27:37;;;;;;;6.55;2.33;;;;;;;20.74;80.35;165994.78;5059410;28;20045;-57
2022/05/22 10:30:29;;;;;;;5.18;2.33;;;;;;;21.21;84.32;166118.41;5063805;28;20146;-57
2022/05/22 10:33:16;;;;;;;5.85;1.80;;;;;;;21.04;76.38;166074.94;5038406;28;20053;-57
2022/05/22 10:35:50;;;;;;;4.65;2.17;;;;;;;21.23;78.42;166125.19;5041312;28;20103;-57
2022/05/22 10:38:21;;;;;;;5.28;2.55;;;;;;;21.46;83.37;166184.94;5060501;28;20042;-57
2022/05/22 10:43:40;;;;;;;9.45;2.10;;;;;;;20.58;82.84;165954.06;5063695;28;20102;-58
2022/05/22 10:46:05;;;;;;;10.23;2.90;;;;;;;20.03;83.05;165808.78;5062061;28;20047;-58
2022/05/22 10:48:33;;;;;;;4.57;1.80;;;;;;;19.92;86.42;165780.28;5062999;28;20028;-57
2022/05/22 10:51:07;;;;;;;6.72;2.03;;;;;;;20.40;93.63;165905.16;5061903;28;20090;-57
2022/05/22 10:53:37;;;;;;;4.45;1.70;;;;;;;20.87;87.21;166028.75;5062616;28;20119;-57
2022/05/22 10:56:17;;;;;;;4.18;1.50;;;;;;;20.76;81.78;166000.25;5060137;28;20021;-57
2022/05/22 10:58:53;;;;;;;5.47;2.03;;;;;;;21.28;78.29;166136.03;5061822;28;20028;-57
2022/05/22 11:01:22;;;;;;;8.85;1.98;;;;;;;21.70;94.11;166248.81;5071562;28;20143;-57
2022/05/22 11:03:48;;;;;;;5.25;1.73;;;;;;;21.98;86.74;166320.81;5072075;28;20526;-57
2022/05/22 11:06:18;;;;;;;7.30;3.50;;;;;;;21.87;82.04;166293.63;5069995;28;20048;-57
2022/05/22 11:08:52;;;;;;;11.48;2.42;;;;;;;22.04;84.19;166337.13;5066594;28;20535;-58
2022/05/22 11:11:22;;;;;;;5.45;2.45;;;;;;;21.78;82.14;166269.16;5068888;28;20546;-58
2022/05/22 11:13:47;;;;;;;6.32;2.08;;;;;;;20.92;82.04;166043.69;5070394;28;20424;-57
2022/05/22 11:16:17;;;;;;;6.70;1.58;;;;;;;20.61;88.74;165960.84;5069871;28;20041;-58
2022/05/22 11:18:43;;;;;;;5.47;1.77;;;;;;;20.53;91.54;165940.44;5067380;28;20040;-57
2022/05/22 11:21:19;;;;;;;6.65;2.60;;;;;;;20.87;91.40;166030.13;5068059;28;20426;-58
2022/05/22 11:24:05;;;;;;;5.22;2.03;;;;;;;20.92;89.11;166042.38;5067926;28;20036;-58
2022/05/22 11:26:43;;;;;;;7.05;2.70;;;;;;;21.10;90.89;166089.88;5063604;28;20060;-57
2022/05/22 11:29:28;;;;;;;6.55;2.28;;;;;;;21.39;91.59;166167.25;5071804;28;20035;-57
2022/05/22 11:32:19;;;;;;;6.70;2.30;;;;;;;21.78;85.33;166269.16;5070534;28;20402;-58
2022/05/22 11:35:16;;;;;;;4.05;2.00;;;;;;;21.61;79.20;166223.00;5071611;28;20494;-58
2022/05/22 11:38:06;;;;;;;;;;;;;;;22.07;83.36;166345.28;5067594;28;20098;-57
2022/05/22 11:40:42;;;;;;;6.20;2.15;;;;;;;22.10;83.75;166353.41;5061764;28;19924;-59
2022/05/22 11:43:18;;;;;;;3.97;2.00;;;;;;;22.42;83.68;166437.72;5061060;28;20027;-59